Burt, Illinois
Current Conditions -  °F | °C
As of 6:15 AM on Tuesday 27 Jan 2015 (Local Time) from KAAA Reporting Station
Haze Haze  
Wind Chill: 26°   Ceiling: 3600
Heat Index: 32°   Visibility: 5mi
Dew Point: 30°   Wind: 6mph
Humidity: 91%   Direction: 360°N
Pressure: 30.04"   Gusts: NA
Location:  40.3088°N, 89.3237°W
Report Text: KAAA 271215Z AUTO 36005KT 5SM BR OVC036 00/M01 A3004 RMK AO2 T00001013
Loading
Personal Weather Stations






























Interactive Weather Map New forecast layout! Learn more

10-Day Weather Forecast

Advertisements
Track Severe Weather on mobile